| time (UTC) | temp C | wind direction | speed KPH | gust KPH | rain 1hr cm | rain 24hr cm | rain mn cm | humidity % | barometer mb |
| 20260504194505 | 18 | 240 | 9.7 | 24.1 | 0.00 | 0.00 | 0.00 | 39 | 1011.0 |
| 20260504194009 | 17 | 226 | 9.7 | 27.4 | 0.00 | 0.00 | 0.00 | 39 | 1011.1 |
| 20260504193505 | 17 | 207 | 12.9 | 29.0 | 0.00 | 0.00 | 0.00 | 39 | 1011.2 |
| 20260504193009 | 18 | 213 | 14.5 | 29.0 | 0.00 | 0.00 | 0.00 | 38 | 1011.2 |
| 20260504192505 | 18 | 209 | 9.7 | 29.0 | 0.00 | 0.00 | 0.00 | 38 | 1011.3 |
| 20260504192009 | 18 | 209 | 9.7 | 25.7 | 0.00 | 0.00 | 0.00 | 37 | 1011.2 |
| 20260504191505 | 18 | 213 | 9.7 | 25.7 | 0.00 | 0.00 | 0.00 | 37 | 1011.2 |
| 20260504191008 | 18 | 190 | 11.3 | 25.7 | 0.00 | 0.00 | 0.00 | 36 | 1011.3 |
| 20260504190505 | 18 | 230 | 11.3 | 22.5 | 0.00 | 0.00 | 0.00 | 38 | 1011.2 |
| 20260504190005 | 18 | 212 | 8.0 | 25.7 | 0.00 | 0.00 | 0.00 | 38 | 1011.3 |
| 20260504185505 | 18 | 228 | 11.3 | 27.4 | 0.00 | 0.00 | 0.00 | 36 | 1011.3 |
| 20260504185010 | 18 | 209 | 11.3 | 27.4 | 0.00 | 0.00 | 0.00 | 34 | 1011.4 |
| 20260504184505 | 18 | 218 | 9.7 | 25.7 | 0.00 | 0.00 | 0.00 | 34 | 1011.4 |
| 20260504184009 | 18 | 238 | 11.3 | 25.7 | 0.00 | 0.00 | 0.00 | 33 | 1011.5 |
| 20260504183505 | 18 | 205 | 9.7 | 27.4 | 0.00 | 0.00 | 0.00 | 33 | 1011.6 |
| 20260504183009 | 18 | 206 | 9.7 | 27.4 | 0.00 | 0.00 | 0.00 | 31 | 1011.5 |
| 20260504182505 | 19 | 217 | 8.0 | 19.3 | 0.00 | 0.00 | 0.00 | 31 | 1011.5 |
| 20260504182009 | 18 | 177 | 8.0 | 19.3 | 0.00 | 0.00 | 0.00 | 34 | 1011.5 |
| 20260504181505 | 18 | 206 | 8.0 | 19.3 | 0.00 | 0.00 | 0.00 | 33 | 1011.6 |
| 20260504181008 | 18 | 204 | 8.0 | 19.3 | 0.00 | 0.00 | 0.00 | 34 | 1011.8 |
| 20260504180505 | 18 | 217 | 8.0 | 19.3 | 0.00 | 0.00 | 0.00 | 34 | 1011.8 |
| 20260504180004 | 18 | 183 | 3.2 | 20.9 | 0.00 | 0.00 | 0.00 | 36 | 1011.8 |
| 20260504175505 | 18 | 214 | 8.0 | 20.9 | 0.00 | 0.00 | 0.00 | 37 | 1011.8 |
| 20260504175009 | 18 | 236 | 9.7 | 20.9 | 0.00 | 0.00 | 0.00 | 37 | 1011.8 |
| 20260504174505 | 17 | 216 | 6.4 | 19.3 | 0.00 | 0.00 | 0.00 | 40 | 1011.9 |
| 20260504174009 | 17 | 237 | 8.0 | 19.3 | 0.00 | 0.00 | 0.00 | 42 | 1012.0 |
| 20260504173505 | 17 | 201 | 8.0 | 20.9 | 0.00 | 0.00 | 0.00 | 41 | 1012.0 |
| 20260504173009 | 17 | 228 | 9.7 | 20.9 | 0.00 | 0.00 | 0.00 | 41 | 1012.0 |
| 20260504172505 | 17 | 235 | 8.0 | 20.9 | 0.00 | 0.00 | 0.00 | 41 | 1012.0 |
| 20260504172009 | 17 | 218 | 6.4 | 20.9 | 0.00 | 0.00 | 0.00 | 43 | 1012.2 |
| 20260504171506 | 17 | 151 | 4.8 | 24.1 | 0.00 | 0.00 | 0.00 | 41 | 1012.2 |
| 20260504171008 | 17 | 250 | 11.3 | 27.4 | 0.00 | 0.00 | 0.00 | 39 | 1012.3 |
| 20260504170507 | 17 | 234 | 12.9 | 27.4 | 0.00 | 0.00 | 0.00 | 38 | 1012.4 |
| 20260504151007 | 16 | 210 | 8.0 | 19.3 | 0.00 | 0.00 | 0.00 | 33 | 1013.5 |
| 20260504150505 | 16 | 212 | 8.0 | 22.5 | 0.00 | 0.00 | 0.00 | 34 | 1013.6 |
| 20260504141007 | 15 | 238 | 14.5 | 27.4 | 0.00 | 0.00 | 0.00 | 34 | 1013.7 |
| 20260504140505 | 15 | 219 | 8.0 | 19.3 | 0.00 | 0.00 | 0.00 | 35 | 1013.7 |
| 20260504130505 | 13 | 228 | 8.0 | 19.3 | 0.00 | 0.00 | 0.00 | 46 | 1014.2 |
| 20260504110504 | 9 | 0 | 3.2 | 12.9 | 0.00 | 0.00 | 0.00 | 65 | 1014.3 |
| 20260504100505 | 8 | 280 | 4.8 | 16.1 | 0.00 | 0.00 | 0.00 | 50 | 1014.1 |
| 20260504081505 | 8 | 295 | 3.2 | 12.9 | 0.00 | 0.00 | 0.00 | 49 | 1013.5 |
| 20260504081008 | 8 | 281 | 4.8 | 12.9 | 0.00 | 0.00 | 0.00 | 49 | 1013.5 |
| 20260504080505 | 8 | 284 | 3.2 | 8.0 | 0.00 | 0.00 | 0.00 | 49 | 1013.5 |
| 20260504050505 | 8 | 315 | 3.2 | 8.0 | 0.00 | 0.00 | 0.00 | 52 | 1012.7 |
| 20260504050005 | 8 | 318 | 3.2 | 8.0 | 0.00 | 0.00 | 0.00 | 55 | 1012.7 |
| 20260504045505 | 7 | 321 | 3.2 | 8.0 | 0.00 | 0.00 | 0.00 | 57 | 1012.6 |
| 20260504045009 | 7 | 318 | 1.6 | 4.8 | 0.00 | 0.00 | 0.00 | 60 | 1012.6 |
| 20260504044505 | 7 | 320 | 1.6 | 4.8 | 0.00 | 0.00 | 0.00 | 63 | 1012.7 |
| 20260504044009 | 6 | 318 | 3.2 | 4.8 | 0.00 | 0.00 | 0.00 | 65 | 1012.6 |
| 20260504043505 | 6 | 292 | 3.2 | 4.8 | 0.00 | 0.00 | 0.00 | 68 | 1012.6 |
| 20260504043009 | 6 | 293 | 1.6 | 4.8 | 0.00 | 0.00 | 0.00 | 68 | 1012.7 |
| 20260504042505 | 6 | 346 | 0.0 | 3.2 | 0.00 | 0.00 | 0.00 | 68 | 1012.6 |
| 20260504042008 | 6 | 349 | 0.0 | 0.0 | 0.00 | 0.00 | 0.00 | 67 | 1012.7 |
| 20260504041505 | 6 | 346 | 0.0 | 0.0 | 0.00 | 0.00 | 0.00 | 66 | 1012.6 |
| 20260504041008 | 6 | 345 | 0.0 | 0.0 | 0.00 | 0.00 | 0.00 | 65 | 1012.6 |
| 20260504040505 | 6 | 345 | 0.0 | 0.0 | 0.00 | 0.00 | 0.00 | 64 | 1012.6 |
| 20260504040005 | 6 | 347 | 0.0 | 0.0 | 0.00 | 0.00 | 0.00 | 63 | 1012.5 |
| 20260504035506 | 6 | 345 | 0.0 | 0.0 | 0.00 | 0.00 | 0.00 | 63 | 1012.6 |
| 20260504035009 | 6 | 336 | 0.0 | 0.0 | 0.00 | 0.00 | 0.00 | 62 | 1012.6 |
| 20260504034505 | 6 | 335 | 0.0 | 0.0 | 0.00 | 0.00 | 0.00 | 61 | 1012.6 |
| 20260504034009 | 6 | 339 | 0.0 | 0.0 | 0.00 | 0.00 | 0.00 | 60 | 1012.5 |
| 20260504033505 | 6 | 344 | 0.0 | 0.0 | 0.00 | 0.00 | 0.00 | 59 | 1012.5 |
| 20260504033009 | 6 | 340 | 0.0 | 0.0 | 0.00 | 0.00 | 0.00 | 59 | 1012.5 |
| 20260504032505 | 7 | 346 | 0.0 | 0.0 | 0.00 | 0.00 | 0.00 | 59 | 1012.6 |
| 20260504032009 | 7 | 348 | 0.0 | 0.0 | 0.00 | 0.00 | 0.00 | 57 | 1012.5 |
| 20260504031505 | 7 | 346 | 0.0 | 0.0 | 0.00 | 0.00 | 0.00 | 56 | 1012.5 |
| 20260504031009 | 7 | 341 | 0.0 | 0.0 | 0.00 | 0.00 | 0.00 | 55 | 1012.5 |
| 20260504030505 | 7 | 344 | 0.0 | 0.0 | 0.00 | 0.00 | 0.00 | 53 | 1012.5 |
| 20260504030005 | 7 | 345 | 0.0 | 0.0 | 0.00 | 0.00 | 0.00 | 53 | 1012.5 |
| 20260504025505 | 7 | 348 | 0.0 | 0.0 | 0.00 | 0.00 | 0.00 | 52 | 1012.5 |
| 20260504025009 | 7 | 352 | 0.0 | 0.0 | 0.00 | 0.00 | 0.00 | 50 | 1012.5 |
| 20260504024505 | 7 | 351 | 0.0 | 0.0 | 0.00 | 0.00 | 0.00 | 50 | 1012.5 |
| 20260504024010 | 7 | 350 | 0.0 | 0.0 | 0.00 | 0.00 | 0.00 | 49 | 1012.5 |
| 20260504023505 | 7 | 352 | 0.0 | 0.0 | 0.00 | 0.00 | 0.00 | 47 | 1012.6 |
| 20260504023009 | 8 | 351 | 0.0 | 0.0 | 0.00 | 0.00 | 0.00 | 46 | 1012.6 |
| 20260504022505 | 8 | 355 | 0.0 | 3.2 | 0.00 | 0.00 | 0.00 | 43 | 1012.5 |
| 20260504022008 | 8 | 349 | 0.0 | 3.2 | 0.00 | 0.00 | 0.00 | 42 | 1012.5 |
| 20260504021505 | 8 | 350 | 0.0 | 0.0 | 0.00 | 0.00 | 0.00 | 38 | 1012.5 |
| 20260504021008 | 8 | 348 | 0.0 | 0.0 | 0.00 | 0.00 | 0.00 | 38 | 1012.4 |
| 20260504020505 | 8 | 351 | 0.0 | 0.0 | 0.00 | 0.00 | 0.00 | 34 | 1012.4 |
| 20260504020005 | 9 | 347 | 0.0 | 0.0 | 0.00 | 0.00 | 0.00 | 33 | 1012.4 |
| 20260504015505 | 9 | 350 | 0.0 | 0.0 | 0.00 | 0.00 | 0.00 | 32 | 1012.4 |
| 20260504015008 | 9 | 357 | 0.0 | 0.0 | 0.00 | 0.00 | 0.00 | 30 | 1012.3 |
| 20260504014504 | 9 | 356 | 0.0 | 0.0 | 0.00 | 0.00 | 0.00 | 27 | 1012.4 |
| 20260504014009 | 10 | 357 | 0.0 | 0.0 | 0.00 | 0.00 | 0.00 | 25 | 1012.3 |
| 20260504013505 | 10 | 356 | 0.0 | 0.0 | 0.00 | 0.00 | 0.00 | 24 | 1012.3 |
| 20260504013008 | 10 | 355 | 0.0 | 0.0 | 0.00 | 0.00 | 0.00 | 24 | 1012.2 |
| 20260504012505 | 10 | 356 | 0.0 | 0.0 | 0.00 | 0.00 | 0.00 | 20 | 1012.1 |
| 20260504012009 | 10 | 357 | 0.0 | 0.0 | 0.00 | 0.00 | 0.00 | 18 | 1012.0 |
| 20260504011505 | 10 | 356 | 0.0 | 0.0 | 0.00 | 0.00 | 0.00 | 17 | 1012.0 |
| 20260504011007 | 11 | 358 | 0.0 | 0.0 | 0.00 | 0.00 | 0.00 | 16 | 1011.9 |
| 20260504010507 | 11 | 358 | 0.0 | 1.6 | 0.00 | 0.00 | 0.00 | 12 | 1011.9 |
| 20260504010005 | 11 | 355 | 0.0 | 1.6 | 0.00 | 0.00 | 0.00 | 12 | 1011.8 |
| 20260504005505 | 11 | 357 | 0.0 | 0.0 | 0.00 | 0.00 | 0.00 | 10 | 1011.7 |
| 20260504005009 | 11 | 357 | 0.0 | 0.0 | 0.00 | 0.00 | 0.00 | 9 | 1011.7 |
| 20260504004505 | 12 | 357 | 0.0 | 0.0 | 0.00 | 0.00 | 0.00 | 9 | 1011.6 |
| 20260504004009 | 12 | 357 | 0.0 | 0.0 | 0.00 | 0.00 | 0.00 | 12 | 1011.5 |
| 20260504003505 | 12 | 358 | 0.0 | 0.0 | 0.00 | 0.00 | 0.00 | 10 | 1011.5 |
| 20260504003009 | 12 | 358 | 0.0 | 0.0 | 0.00 | 0.00 | 0.00 | 9 | 1011.4 |
| 20260504002505 | 12 | 359 | 0.0 | 0.0 | 0.00 | 0.00 | 0.00 | 8 | 1011.3 |
| 20260504002008 | 12 | 359 | 0.0 | 0.0 | 0.00 | 0.00 | 0.00 | 7 | 1011.3 |
| 20260504001506 | 13 | 355 | 0.0 | 1.6 | 0.00 | 0.00 | 0.00 | 4 | 1011.2 |
| 20260504001013 | 13 | 359 | 0.0 | 3.2 | 0.00 | 0.00 | 0.00 | 2 | 1011.2 |
| 20260504000530 | 13 | 0 | 1.6 | 4.8 | 0.00 | 0.00 | 0.00 | 2 | 1011.1 |
| 20260504000005 | 13 | 0 | 1.6 | 11.3 | 0.00 | 0.00 | 0.00 | 2 | 1011.1 |
| 20260503235505 | 13 | 358 | 3.2 | 11.3 | 0.00 | 0.00 | 0.00 | 2 | 1011.0 |
| 20260503235009 | 13 | 357 | 4.8 | 11.3 | 0.00 | 0.00 | 0.00 | 2 | 1011.0 |
| 20260503234505 | 13 | 0 | 1.6 | 11.3 | 0.00 | 0.00 | 0.00 | 2 | 1010.8 |
| 20260503234011 | 13 | 0 | 4.8 | 11.3 | 0.00 | 0.00 | 0.00 | 2 | 1010.8 |
| 20260503233505 | 14 | 0 | 3.2 | 12.9 | 0.00 | 0.00 | 0.00 | 2 | 1010.8 |
| 20260503233010 | 14 | 0 | 3.2 | 14.5 | 0.00 | 0.00 | 0.00 | 2 | 1010.7 |
| 20260503232505 | 14 | 0 | 3.2 | 14.5 | 0.00 | 0.00 | 0.00 | 2 | 1010.6 |
| 20260503232009 | 15 | 0 | 4.8 | 14.5 | 0.00 | 0.00 | 0.00 | 2 | 1010.6 |
| 20260503231505 | 15 | 0 | 8.0 | 22.5 | 0.00 | 0.00 | 0.00 | 2 | 1010.5 |
| 20260503231007 | 15 | 0 | 8.0 | 22.5 | 0.00 | 0.00 | 0.00 | 2 | 1010.5 |
| 20260503230505 | 16 | 0 | 6.4 | 19.3 | 0.00 | 0.00 | 0.00 | 2 | 1010.5 |
| 20260503230005 | 16 | 278 | 3.2 | 19.3 | 0.00 | 0.00 | 0.00 | 2 | 1010.5 |
| 20260503225505 | 16 | 294 | 9.7 | 19.3 | 0.00 | 0.00 | 0.00 | 2 | 1010.4 |
| 20260503225009 | 16 | 274 | 8.0 | 19.3 | 0.00 | 0.00 | 0.00 | 2 | 1010.4 |
| 20260503224504 | 16 | 296 | 8.0 | 24.1 | 0.00 | 0.00 | 0.00 | 2 | 1010.4 |
| 20260503224009 | 16 | 271 | 8.0 | 24.1 | 0.00 | 0.00 | 0.00 | 2 | 1010.3 |
| 20260503223505 | 16 | 291 | 9.7 | 24.1 | 0.00 | 0.00 | 0.00 | 2 | 1010.3 |
| 20260503223009 | 16 | 275 | 11.3 | 24.1 | 0.00 | 0.00 | 0.00 | 2 | 1010.2 |
| 20260503222505 | 16 | 266 | 8.0 | 16.1 | 0.00 | 0.00 | 0.00 | 2 | 1010.2 |
| 20260503222009 | 16 | 310 | 8.0 | 16.1 | 0.00 | 0.00 | 0.00 | 2 | 1010.1 |
| 20260503221505 | 16 | 294 | 4.8 | 24.1 | 0.00 | 0.00 | 0.00 | 2 | 1010.1 |
| 20260503221007 | 16 | 286 | 9.7 | 27.4 | 0.00 | 0.00 | 0.00 | 2 | 1010.2 |
| 20260503220505 | 16 | 313 | 8.0 | 27.4 | 0.00 | 0.00 | 0.00 | 2 | 1010.1 |
| 20260503220005 | 15 | 304 | 8.0 | 33.8 | 0.00 | 0.00 | 0.00 | 2 | 1010.2 |
| 20260503215504 | 15 | 289 | 14.5 | 33.8 | 0.00 | 0.00 | 0.00 | 2 | 1010.2 |
| 20260503215009 | 16 | 309 | 14.5 | 32.2 | 0.00 | 0.00 | 0.00 | 2 | 1010.2 |
| 20260503214505 | 16 | 313 | 14.5 | 32.2 | 0.00 | 0.00 | 0.00 | 2 | 1010.1 |
| 20260503214009 | 16 | 270 | 11.3 | 24.1 | 0.00 | 0.00 | 0.00 | 2 | 1010.1 |
| 20260503213505 | 16 | 297 | 9.7 | 29.0 | 0.00 | 0.00 | 0.00 | 2 | 1010.2 |
| 20260503213009 | 16 | 300 | 11.3 | 32.2 | 0.00 | 0.00 | 0.00 | 2 | 1010.0 |
| 20260503212505 | 16 | 314 | 9.7 | 32.2 | 0.00 | 0.00 | 0.00 | 2 | 1009.9 |
| 20260503212008 | 16 | 305 | 17.7 | 33.8 | 0.00 | 0.00 | 0.00 | 2 | 1010.0 |
| 20260503211505 | 16 | 300 | 16.1 | 33.8 | 0.00 | 0.00 | 0.00 | 2 | 1010.0 |
| 20260503211008 | 16 | 330 | 6.4 | 25.7 | 0.00 | 0.00 | 0.00 | 2 | 1009.9 |
| 20260503210507 | 15 | 4 | 6.4 | 25.7 | 0.00 | 0.00 | 0.00 | 2 | 1010.0 |
| 20260503210006 | 15 | 311 | 14.5 | 27.4 | 0.00 | 0.00 | 0.00 | 2 | 1009.9 |
| 20260503205504 | 16 | 330 | 12.9 | 29.0 | 0.00 | 0.00 | 0.00 | 2 | 1010.0 |
| 20260503205009 | 16 | 0 | 14.5 | 29.0 | 0.00 | 0.00 | 0.00 | 2 | 1009.8 |
| 20260503204505 | 16 | 358 | 11.3 | 27.4 | 0.00 | 0.00 | 0.00 | 2 | 1009.7 |
| 20260503204011 | 16 | 338 | 9.7 | 27.4 | 0.00 | 0.00 | 0.00 | 2 | 1009.8 |
| 20260503203505 | 16 | 320 | 8.0 | 22.5 | 0.00 | 0.00 | 0.00 | 2 | 1009.8 |
| 20260503203009 | 16 | 332 | 8.0 | 24.1 | 0.00 | 0.00 | 0.00 | 2 | 1009.9 |
| 20260503202505 | 15 | 324 | 8.0 | 29.0 | 0.00 | 0.00 | 0.00 | 3 | 1009.8 |
| 20260503202009 | 15 | 314 | 11.3 | 33.8 | 0.00 | 0.00 | 0.00 | 2 | 1009.8 |
| 20260503201505 | 15 | 334 | 14.5 | 33.8 | 0.00 | 0.00 | 0.00 | 2 | 1010.0 |
| 20260503201009 | 15 | 298 | 8.0 | 32.2 | 0.00 | 0.00 | 0.00 | 2 | 1010.0 |
| 20260503200505 | 15 | 269 | 14.5 | 38.6 | 0.00 | 0.00 | 0.00 | 2 | 1010.1 |
| 20260503200004 | 14 | 308 | 9.7 | 38.6 | 0.00 | 0.00 | 0.00 | 3 | 1010.1 |
| 20260503195505 | 14 | 310 | 17.7 | 38.6 | 0.00 | 0.00 | 0.00 | 2 | 1010.2 |
| 20260503195008 | 14 | 343 | 8.0 | 27.4 | 0.00 | 0.00 | 0.00 | 4 | 1010.1 |